Share

Spooner, WI (54801)

KWISHELL3 Elev 1240 ft | 45.74 °N, 91.93 °W | Change Station

Current weather conditions updated 8 minutes ago

Clear
Clear
48.4 °F
Feels Like 47 °F
N
4.2
Wind Variable Wind from ESE
Sunrise 6:11 AM
Sunset 8:03 PM
Moon Waning Gibbous

Today is forecast to be Much Cooler than yesterday. Showers ending by midday.

Pressure 29.89 in
Visibility 10.0 miles
Clouds Clear
Windchill 47 °F
Dew Point 48 °F
Humidity 99%
Rainfall 0.00 in
Snow Depth Not available.
UV 0 out of 16
Pollen 10.50 out of 12
Air Quality Not available.
Flu Activity Sporadic
METAR KRZN 210930Z AUTO 00000KT 10SM CLR 05/03 A2989 RMK AO2 T00500025

More Conditions Fewer Conditions

Pressure 29.89 in
Visibility 10.0 miles
Clouds Clear
Windchill 47 °F
Dew Point 48 °F
Humidity 99%
Rainfall 0.00 in
Snow Depth Not available.
UV 0 out of 16
Pollen 10.50 out of 12
Air Quality Not available.
Flu Activity Sporadic
METAR KRZN 210930Z AUTO 00000KT 10SM CLR 05/03 A2989 RMK AO2 T00500025

More Conditions Fewer Conditions

10-Day Weather Forecast

Almanac

Astronomy

Apr. 21, 2014 Rise Set
Actual Time 6:11 AM CDT 8:03 PM CDT
Civil Twilight 5:39 AM CDT 8:35 PM CDT
Nautical Twilight 5:00 AM CDT 9:14 PM CDT
Astronomical Twilight 4:18 AM CDT 9:57 PM CDT
Moon 1:38 AM CDT 11:34 AM CDT
Length of Visible Light 14h 55m
Length of Day
13h 51m
Tomorrow will be 3m 0s longer.
Waning Gibbous, 60% of the Moon is Illuminated
Today
Waning Gibbous
Apr 22
Last Quarter
Apr 29
New
May 6
First Quarter
May 14
Full

Today's Extremes

State Highs State Lows

Community

  • Snowy Robin
    Snowy Robin
  • Sun Pillar and Geese
    Sun Pillar and Geese
  • Showers on the Way
    Showers on the Way
  • Easter Morning Fog
    Easter Morning Fog
  • Easter Dance
    Easter Dance

WunderPhotos

Upload Photos

1,703,587 photos uploaded!

WunderBlogs® & News

Nearby

Snow Depth

Station Depth Elevation
No new snow has been reported.

Coastal Water Temperatures

Place Temperature
No Stations Reporting

Earthquake Activity

City Distance Mag. Time & Date
No recent earthquake activity has been reported nearby.
Minimum magnitude displayed is 2.5.

Nearby Weather Stations

Station Location Temp. Windchill Dew Point Humidity Wind Precip. Elev Updated Type
Shell Lake, WI 48.4 °F 47 °F 48 °F 99% ESE  at  4.2 mph - / hr 1240 ft 5:12 AM CDT Normal
Shell Lake, Shell Lake, WI 45.8 °F 46 °F 44 °F 92% North  at  0.0 mph - / hr 1230 ft 5:20 AM CDT Normal
Clam River Flowage, Danbury, WI 45.9 °F 46 °F 42 °F 86% NW  at  0.0 mph 0.00 in / hr 951 ft 5:20 AM CDT Rapid Fire
Frederic, WI 53.0 °F - 51 °F 94% South  at  8.0 mph 0.00 in / hr 1220 ft 5:20 AM CDT Rapid Fire

Show More Stations Show Fewer Stations

What do you think?

We're not finished. Please let us know what you like, what you don't like, and what you are still missing.